Terminal Aerodrome Forecast
Issued by NWS

Home | Current Version | Previous Version | Text Only | Print | Product List | Glossary On
Versions: 1 2 3 4 5 6 7 8 9 10 11 12 13 14 15 16 17 18 19 20 21 22 23 24
384
FTUS46 KLOX 242336
TAFLAX
TAF
KLAX 242336Z 2500/2606 26008KT P6SM SCT250
     FM250400 VRB03KT P6SM SCT250
     FM251400 11005KT P6SM SCT250
     FM252000 25008KT P6SM SCT250
     FM260400 VRB03KT P6SM BKN250=

USA.gov is the U.S. government's official web portal to all federal, state and local government web resources and services.